Terminal Aerodrome Forecast
Issued by NWS Blacksburg, VA

Home | Current Version | Previous Version | Text Only | Print | Product List | Glossary On
Versions: 1 2 3 4 5 6 7 8 9 10 11 12 13
000
FTUS41 KRNK 252329
TAFROA
TAF
KROA 252329Z 2600/2624 VRB03KT P6SM SCT080
     FM260700 27003KT P6SM BKN150
     FM261400 22005KT P6SM BKN200
     FM261900 21008KT P6SM VCTS BKN050CB=

USA.gov is the U.S. government's official web portal to all federal, state and local government web resources and services.